Time;durP1;ratioP1;P1;durP2;ratioP2;P2;SDS_P1;SDS_P2;PMS_P1;PMS_P2;Temp;Humidity;BMP_temperature;BMP_pressure;BME280_temperature;BME280_humidity;BME280_pressure;Samples;Min_cycle;Max_cycle;Signal;HPM_P1;HPM_P2
2022/08/21 00:01:01;;;;;;;;;;;;;;;21.65;55.25;98885.97;5094660;28;20143;-67
2022/08/21 00:03:40;;;;;;;;;;;;;;;21.81;56.28;98891.66;5094777;28;19924;-66
2022/08/21 00:06:15;;;;;;;;;;;;;;;22.13;56.04;98896.06;5095588;28;19915;-64
2022/08/21 00:08:50;;;;;;;;;;;;;;;22.49;55.56;98899.19;5071784;28;19924;-66
2022/08/21 00:11:35;;;;;;;;;;;;;;;22.64;51.35;98905.84;5069062;28;19934;-67
2022/08/21 00:14:11;;;;;;;;;;;;;;;22.51;52.43;98914.03;5084802;28;19916;-66
2022/08/21 00:16:52;;;;;;;;;;;;;;;22.50;52.74;98919.53;5084636;28;19970;-66
2022/08/21 00:19:34;;;;;;;;;;;;;;;22.58;52.54;98917.03;5084131;28;19924;-65
2022/08/21 00:22:10;;;;;;;;;;;;;;;22.20;50.69;98918.53;5082249;28;19942;-63
2022/08/21 00:24:55;;;;;;;;;;;;;;;22.03;50.79;98916.44;5104626;28;20085;-68
2022/08/21 00:27:34;;;;;;;;;;;;;;;21.85;51.19;98925.00;5088569;28;20122;-65
2022/08/21 00:30:14;;;;;;;;;;;;;;;21.96;50.52;98922.28;5104795;28;19915;-68
2022/08/21 00:33:15;;;;;;;;;;;;;;;22.06;50.40;98910.84;5104956;28;19916;-63
2022/08/21 00:39:03;;;;;;;;;;;;;;;22.25;52.98;98934.94;5124249;28;19924;-65
2022/08/21 00:41:49;;;;;;;;;;;;;;;22.06;51.84;98921.50;5124264;28;19915;-65
2022/08/21 00:44:36;;;;;;;;;;;;;;;21.75;52.71;98940.06;5128852;27;19927;-66
2022/08/21 00:47:24;;;;;;;;;;;;;;;21.94;53.15;98936.66;5099771;27;20286;-63
2022/08/21 00:50:04;;;;;;;;;;;;;;;22.31;54.21;98926.41;5130617;27;19996;-65
2022/08/21 00:52:58;;;;;;;;;;;;;;;22.63;51.07;98927.28;5133371;27;19923;-65
2022/08/21 00:55:35;;;;;;;;;;;;;;;22.79;52.22;98928.47;5132043;27;19926;-62
2022/08/21 00:58:13;;;;;;;;;;;;;;;22.83;50.04;98932.50;5133543;27;19972;-64
2022/08/21 01:00:58;;;;;;;;;;;;;;;23.02;51.08;98930.94;5132486;27;19915;-65
2022/08/21 01:03:47;;;;;;;;;;;;;;;23.24;51.89;98936.03;5131788;27;19941;-66
2022/08/21 01:06:24;;;;;;;;;;;;;;;23.18;49.08;98941.88;5133229;27;19923;-64
2022/08/21 01:09:13;;;;;;;;;;;;;;;23.20;49.89;98934.59;5131812;27;19922;-63
2022/08/21 01:11:49;;;;;;;;;;;;;;;23.06;45.95;98927.00;5132245;27;20017;-64
2022/08/21 01:14:30;;;;;;;;;;;;;;;22.86;45.32;98919.91;5133308;27;19923;-64
2022/08/21 01:17:19;;;;;;;;;;;;;;;22.74;46.78;98922.69;5131011;27;20419;-65
2022/08/21 01:20:08;;;;;;;;;;;;;;;22.73;46.53;98934.31;5132541;27;19921;-63
2022/08/21 01:22:49;;;;;;;;;;;;;;;22.56;46.34;98924.28;5131301;27;19933;-66
2022/08/21 01:25:55;;;;;;;;;;;;;;;22.09;47.09;98921.22;5131269;27;20211;-66
2022/08/21 01:28:49;;;;;;;;;;;;;;;21.61;48.79;98924.41;5131360;27;19948;-67
2022/08/21 01:31:25;;;;;;;;;;;;;;;21.26;50.72;98928.13;5129100;27;19916;-65
2022/08/21 01:34:21;;;;;;;;;;;;;;;21.07;52.14;98945.56;5111651;28;19934;-67
2022/08/21 01:36:59;;;;;;;;;;;;;;;21.14;52.25;98950.38;5076408;28;20342;-65
2022/08/21 01:39:44;;;;;;;;;;;;;;;20.94;51.84;98939.53;5109857;28;20211;-65
2022/08/21 01:42:21;;;;;;;;;;;;;;;21.08;51.33;98957.03;5112081;28;19985;-64
2022/08/21 01:45:11;;;;;;;;;;;;;;;21.13;51.77;98959.31;5111207;28;20000;-67
2022/08/21 01:48:00;;;;;;;;;;;;;;;21.39;51.97;98949.25;5109513;28;19924;-66
2022/08/21 01:50:45;;;;;;;;;;;;;;;21.47;53.26;98952.97;5093026;28;19969;-66
2022/08/21 01:53:26;;;;;;;;;;;;;;;21.70;52.45;98959.03;5111425;28;19924;-64
2022/08/21 01:56:18;;;;;;;;;;;;;;;21.89;52.54;98953.03;5110985;28;19924;-68
2022/08/21 01:58:58;;;;;;;;;;;;;;;22.46;51.11;98950.88;5107961;28;19931;-66
2022/08/21 02:01:43;;;;;;;;;;;;;;;22.98;48.68;98950.81;5074128;28;19934;-65
2022/08/21 02:04:28;;;;;;;;;;;;;;;23.33;49.39;98954.81;5109228;28;19916;-65
2022/08/21 02:07:18;;;;;;;;;;;;;;;23.35;49.59;98947.53;5110299;28;20434;-68
2022/08/21 02:09:58;;;;;;;;;;;;;;;23.13;47.93;98960.09;5111113;28;19943;-67
2022/08/21 02:12:49;;;;;;;;;;;;;;;22.86;47.55;98973.19;5107639;28;20104;-64
2022/08/21 02:15:52;;;;;;;;;;;;;;;22.41;48.26;98963.72;5070934;28;20151;-64
2022/08/21 02:18:33;;;;;;;;;;;;;;;22.03;49.14;98977.63;5078009;28;19940;-66
2022/08/21 02:21:07;;;;;;;;;;;;;;;21.88;49.37;98967.28;5083777;28;19962;-65
2022/08/21 02:23:53;;;;;;;;;;;;;;;21.76;49.99;98963.84;5093612;28;19924;-67
2022/08/21 02:26:37;;;;;;;;;;;;;;;21.81;51.82;98979.41;5114444;28;19949;-65
2022/08/21 02:29:42;;;;;;;;;;;;;;;21.87;51.78;98970.94;5114193;28;19920;-68
2022/08/21 02:32:34;;;;;;;;;;;;;;;22.03;51.69;98965.16;5114195;28;19927;-65
2022/08/21 02:37:59;;;;;;;;;;;;;;;22.57;52.53;98963.25;5111949;28;19947;-67
2022/08/21 02:40:52;;;;;;;;;;;;;;;22.91;51.94;98965.63;5113651;28;19934;-67
2022/08/21 02:43:34;;;;;;;;;;;;;;;23.12;48.41;98968.25;5071101;28;20240;-65
2022/08/21 02:46:32;;;;;;;;;;;;;;;23.17;48.51;98966.84;5115062;28;19970;-64
2022/08/21 02:49:53;;;;;;;;;;;;;;;23.17;49.26;98961.53;5110076;28;19990;-65
2022/08/21 02:52:36;;;;;;;;;;;;;;;23.02;48.68;98984.22;5066123;28;19916;-68
2022/08/21 02:55:14;;;;;;;;;;;;;;;22.75;50.39;98993.59;5113201;28;19924;-62
2022/08/21 02:58:05;;;;;;;;;;;;;;;22.35;49.78;98974.91;5113035;28;19922;-65
2022/08/21 03:00:46;;;;;;;;;;;;;;;22.04;49.34;98992.59;5114418;28;19916;-66
2022/08/21 03:03:30;;;;;;;;;;;;;;;21.92;50.79;98997.16;5115346;28;19970;-63
2022/08/21 03:06:11;;;;;;;;;;;;;;;21.90;52.08;98981.31;5110750;28;19931;-65
2022/08/21 03:08:52;;;;;;;;;;;;;;;21.85;51.91;98993.31;5074554;28;19930;-63
2022/08/21 03:11:29;;;;;;;;;;;;;;;21.73;51.38;98972.06;5037443;28;20196;-67
2022/08/21 03:14:17;;;;;;;;;;;;;;;22.36;52.34;98988.06;5113516;28;19924;-66
2022/08/21 03:17:08;;;;;;;;;;;;;;;23.03;51.90;98996.53;5088375;28;19932;-64
2022/08/21 03:19:56;;;;;;;;;;;;;;;23.35;51.08;99000.84;5077656;28;20038;-66
2022/08/21 03:23:13;;;;;;;;;;;;;;;23.02;49.55;98992.19;5077100;28;19947;-64
2022/08/21 03:26:15;;;;;;;;;;;;;;;22.70;50.83;98979.00;5082593;28;19916;-65
2022/08/21 03:29:02;;;;;;;;;;;;;;;22.51;51.84;98969.94;5057847;28;19924;-66
2022/08/21 03:31:36;;;;;;;;;;;;;;;22.29;52.74;98980.75;5080712;28;19990;-67
2022/08/21 03:34:15;;;;;;;;;;;;;;;22.15;51.79;98995.22;5080560;28;19942;-65
2022/08/21 03:37:23;;;;;;;;;;;;;;;22.12;51.67;98991.00;5083071;28;19925;-64
2022/08/21 03:40:33;;;;;;;;;;;;;;;22.66;52.18;98999.72;5083253;28;19964;-63
2022/08/21 03:43:39;;;;;;;;;;;;;;;23.24;49.94;98997.31;5113483;28;19970;-65
2022/08/21 03:46:32;;;;;;;;;;;;;;;23.53;50.05;98993.84;5077540;28;19970;-64
2022/08/21 03:49:13;;;;;;;;;;;;;;;23.97;50.53;98996.97;5113121;28;19924;-62
2022/08/21 03:54:50;;;;;;;;;;;;;;;24.32;48.42;99003.53;5113151;28;19934;-64
2022/08/21 03:57:52;;;;;;;;;;;;;;;23.92;48.16;99004.56;5087558;28;19916;-66
2022/08/21 04:00:32;;;;;;;;;;;;;;;23.69;48.25;99010.16;5046913;28;19955;-64
2022/08/21 04:03:27;;;;;;;;;;;;;;;23.54;48.44;99006.22;5111549;28;19932;-60
2022/08/21 04:06:17;;;;;;;;;;;;;;;23.21;49.04;99010.91;5113211;28;19937;-63
2022/08/21 04:09:02;;;;;;;;;;;;;;;22.88;48.66;99008.50;5111599;28;19924;-60
2022/08/21 04:11:38;;;;;;;;;;;;;;;22.50;49.81;99002.03;5070989;28;20007;-61
2022/08/21 04:17:36;;;;;;;;;;;;;;;22.12;51.63;99000.78;5112136;28;19916;-61
2022/08/21 04:23:35;;;;;;;;;;;;;;;22.11;53.06;99009.72;5113747;28;19944;-63
2022/08/21 04:26:45;;;;;;;;;;;;;;;22.25;53.02;99005.94;5111542;28;19926;-62
2022/08/21 04:29:34;;;;;;;;;;;;;;;22.32;52.06;99002.63;5110654;28;20205;-59
2022/08/21 04:32:54;;;;;;;;;;;;;;;22.58;51.43;99007.53;5114020;28;20074;-62
2022/08/21 04:36:02;;;;;;;;;;;;;;;22.49;51.76;99013.63;5069742;28;19958;-60
2022/08/21 04:39:05;;;;;;;;;;;;;;;22.49;49.14;98997.66;5112888;28;19961;-61
2022/08/21 04:41:51;;;;;;;;;;;;;;;22.63;49.94;99005.31;5111862;28;19951;-62
2022/08/21 04:44:32;;;;;;;;;;;;;;;22.81;49.19;98993.09;5112674;28;19955;-60
2022/08/21 04:47:11;;;;;;;;;;;;;;;23.07;47.61;98997.13;5109770;28;19952;-61
2022/08/21 04:49:51;;;;;;;;;;;;;;;23.30;48.66;99005.75;5108290;28;19916;-62
2022/08/21 04:52:31;;;;;;;;;;;;;;;23.55;46.81;98997.22;5067681;28;20036;-63
2022/08/21 04:55:03;;;;;;;;;;;;;;;23.51;47.33;99000.28;5111983;28;20207;-62
2022/08/21 05:00:51;;;;;;;;;;;;;;;23.06;46.30;99004.25;5099458;28;19919;-61
2022/08/21 05:03:28;;;;;;;;;;;;;;;22.98;47.81;99014.75;5060680;28;19923;-62
2022/08/21 05:06:16;;;;;;;;;;;;;;;22.87;47.92;99014.84;5110881;28;20227;-63
2022/08/21 05:09:01;;;;;;;;;;;;;;;22.59;47.11;99012.75;5068834;28;19975;-62
2022/08/21 05:11:40;;;;;;;;;;;;;;;22.42;48.35;99015.16;5111644;28;19924;-61
2022/08/21 05:14:17;;;;;;;;;;;;;;;22.21;48.95;99010.66;5109875;28;20306;-61
2022/08/21 05:16:58;;;;;;;;;;;;;;;22.03;49.92;99028.16;5110520;28;19916;-62
2022/08/21 05:19:46;;;;;;;;;;;;;;;21.93;50.88;99018.28;5088304;28;19962;-63
2022/08/21 05:22:24;;;;;;;;;;;;;;;21.82;50.32;99021.00;5027251;28;19916;-63
2022/08/21 05:25:08;;;;;;;;;;;;;;;21.85;51.14;99030.53;5076104;28;19949;-63
2022/08/21 05:28:00;;;;;;;;;;;;;;;22.10;51.48;99034.66;5083069;28;19923;-62
2022/08/21 05:30:45;;;;;;;;;;;;;;;22.21;51.01;99039.09;5111347;28;19927;-63
2022/08/21 05:33:40;;;;;;;;;;;;;;;22.35;51.23;99047.59;5111669;28;20192;-63
2022/08/21 05:36:16;;;;;;;;;;;;;;;22.37;51.03;99037.69;5108640;28;19916;-63
2022/08/21 05:38:54;;;;;;;;;;;;;;;22.32;50.43;99055.84;5067039;28;19926;-61
2022/08/21 05:41:31;;;;;;;;;;;;;;;22.26;50.98;99056.34;5110420;28;19938;-63
2022/08/21 05:44:07;;;;;;;;;;;;;;;22.23;51.06;99061.94;5108234;28;19927;-60
2022/08/21 05:46:43;;;;;;;;;;;;;;;22.28;49.48;99064.22;5110189;28;20189;-62
2022/08/21 05:49:27;;;;;;;;;;;;;;;22.26;49.48;99051.03;5030548;28;19927;-61
2022/08/21 05:52:05;;;;;;;;;;;;;;;22.12;50.04;99054.00;5074995;28;19919;-61
2022/08/21 05:55:07;;;;;;;;;;;;;;;22.10;50.52;99053.28;5111830;28;19927;-61
2022/08/21 05:57:48;;;;;;;;;;;;;;;22.07;49.78;99056.19;5067293;28;20324;-60
2022/08/21 06:00:39;;;;;;;;;;;;;;;22.12;49.96;99069.97;5114815;28;19990;-62
2022/08/21 06:03:17;;;;;;;;;;;;;;;22.17;51.39;99051.78;5057897;28;19916;-62
2022/08/21 06:05:59;;;;;;;;;;;;;;;22.12;50.92;99072.63;5116311;28;19929;-61
2022/08/21 06:08:31;;;;;;;;;;;;;;;22.16;51.59;99071.38;5114268;28;19939;-60
2022/08/21 06:11:05;;;;;;;;;;;;;;;22.12;50.65;99075.28;5114225;28;20172;-63
2022/08/21 06:13:44;;;;;;;;;;;;;;;22.11;51.34;99073.56;5113147;28;19971;-64
2022/08/21 06:16:17;;;;;;;;;;;;;;;22.30;51.41;99089.72;5114195;28;19935;-63
2022/08/21 06:18:50;;;;;;;;;;;;;;;22.35;51.00;99098.16;5112511;28;19920;-63
2022/08/21 06:21:37;;;;;;;;;;;;;;;22.20;51.32;99099.44;5115485;28;19916;-64
2022/08/21 06:24:19;;;;;;;;;;;;;;;21.85;51.51;99073.91;5114455;28;19919;-66
2022/08/21 06:26:54;;;;;;;;;;;;;;;22.03;51.74;99103.47;5114934;28;19926;-65
2022/08/21 06:29:29;;;;;;;;;;;;;;;22.23;51.54;99116.97;5114011;28;20133;-64
2022/08/21 08:07:30;;;;;;;;;;;;;;;22.06;53.88;99198.13;5088742;28;19927;-64
2022/08/21 08:10:12;;;;;;;;;;;;;;;21.72;53.85;99216.81;5091067;28;20195;-63
2022/08/21 08:12:48;;;;;;;;;;;;;;;21.54;55.03;99222.59;5090900;28;20173;-63
2022/08/21 08:15:24;;;;;;;;;;;;;;;21.46;55.38;99219.69;5100059;28;19951;-63
2022/08/21 08:18:11;;;;;;;;;;;;;;;21.36;55.76;99215.19;5094536;28;19936;-63
2022/08/21 08:20:47;;;;;;;;;;;;;;;21.24;56.21;99227.59;5097479;28;19943;-61
2022/08/21 08:23:36;;;;;;;;;;;;;;;21.22;55.76;99218.94;5093061;28;19940;-63
2022/08/21 08:29:02;;;;;;;;;;;;;;;21.07;56.27;99227.09;5101079;28;19932;-62
2022/08/21 08:31:49;;;;;;;;;;;;;;;20.95;56.09;99228.03;5095610;28;19924;-62
2022/08/21 08:34:24;;;;;;;;;;;;;;;20.75;56.92;99236.66;5095144;28;20324;-63
2022/08/21 08:37:03;;;;;;;;;;;;;;;20.52;57.06;99241.84;5091342;28;19924;-61
2022/08/21 08:39:50;;;;;;;;;;;;;;;20.34;57.48;99245.81;5095886;28;19923;-61
2022/08/21 08:42:40;;;;;;;;;;;;;;;20.16;57.74;99250.66;5091726;28;19959;-62
2022/08/21 08:45:17;;;;;;;;;;;;;;;20.01;58.40;99257.91;5071297;28;19917;-62
2022/08/21 08:48:06;;;;;;;;;;;;;;;19.89;59.25;99256.13;5098346;28;19954;-62
2022/08/21 08:50:50;;;;;;;;;;;;;;;19.80;59.30;99271.72;5089005;28;19979;-62
2022/08/21 08:53:39;;;;;;;;;;;;;;;19.74;60.15;99276.59;5090989;28;19916;-62
2022/08/21 08:56:19;;;;;;;;;;;;;;;19.61;60.99;99277.44;5096055;28;19916;-62
2022/08/21 08:59:19;;;;;;;;;;;;;;;19.49;60.15;99288.03;5098689;28;20034;-61
2022/08/21 09:02:04;;;;;;;;;;;;;;;;;;;;;
2022/08/21 09:04:42;;;;;;;;;;;;;;;19.56;59.31;99284.00;5089889;28;19943;-62
2022/08/21 09:07:22;;;;;;;;;;;;;;;19.54;59.90;99275.31;5095422;28;19924;-62
2022/08/21 09:10:12;;;;;;;;;;;;;;;19.37;59.54;99280.00;5097574;28;19962;-62
2022/08/21 09:12:50;;;;;;;;;;;;;;;19.25;59.59;99290.56;5091756;28;19916;-61
2022/08/21 09:15:54;;;;;;;;;;;;;;;19.14;60.26;99280.69;5093748;28;19952;-62
2022/08/21 09:18:41;;;;;;;;;;;;;;;19.05;61.13;99283.97;5087450;28;19924;-63
2022/08/21 09:21:31;;;;;;;;;;;;;;;18.89;61.99;99290.25;5096347;28;19924;-62
2022/08/21 09:24:19;;;;;;;;;;;;;;;18.78;63.21;99298.06;5095985;28;19923;-62
2022/08/21 09:26:59;;;;;;;;;;;;;;;18.68;63.56;99297.78;5095219;28;20082;-61
2022/08/21 09:29:57;;;;;;;;;;;;;;;18.56;64.20;99303.03;5098368;28;19916;-62
2022/08/21 09:35:57;;;;;;;;;;;;;;;18.28;64.95;99320.66;5090834;28;19923;-62
2022/08/21 09:38:40;;;;;;;;;;;;;;;18.20;65.30;99301.81;5090838;28;19916;-62
2022/08/21 09:41:27;;;;;;;;;;;;;;;18.10;65.49;99320.88;5092371;28;19916;-62
2022/08/21 09:44:01;;;;;;;;;;;;;;;17.99;65.88;99320.69;5092686;28;19935;-62
2022/08/21 09:46:55;;;;;;;;;;;;;;;17.91;66.31;99317.66;5099996;28;19923;-62
2022/08/21 09:49:55;;;;;;;;;;;;;;;17.83;66.42;99314.66;5092266;28;19925;-62
2022/08/21 09:52:28;;;;;;;;;;;;;;;17.77;66.75;99331.72;5096678;28;19940;-62
2022/08/21 09:57:37;;;;;;;;;;;;;;;17.69;66.45;99334.78;5094872;28;19928;-62
2022/08/21 09:57:58;;;;;;;;;;;;;;;17.66;67.00;99342.91;5095279;28;19924;-62
2022/08/21 10:03:38;;;;;;;;;;;;;;;17.50;67.45;99359.75;5069143;28;19935;-62
2022/08/21 10:06:48;;;;;;;;;;;;;;;17.47;67.48;99355.50;5060638;28;19925;-62
2022/08/21 10:09:32;;;;;;;;;;;;;;;17.46;67.44;99364.38;5069053;28;20013;-62
2022/08/21 10:12:25;;;;;;;;;;;;;;;17.39;67.88;99363.03;5064464;28;19995;-62
2022/08/21 10:15:19;;;;;;;;;;;;;;;17.36;67.93;99371.16;5056402;28;19924;-62
2022/08/21 10:18:04;;;;;;;;;;;;;;;17.34;67.88;99380.94;5062889;28;20047;-61
2022/08/21 10:20:47;;;;;;;;;;;;;;;17.34;67.97;99402.06;5067474;28;20097;-62
2022/08/21 10:26:52;;;;;;;;;;;;;;;17.28;68.03;99402.44;5065597;28;20020;-62
2022/08/21 10:29:43;;;;;;;;;;;;;;;17.27;68.14;99400.72;5060547;28;19927;-62
2022/08/21 10:32:24;;;;;;;;;;;;;;;17.27;68.36;99411.28;5067990;28;19917;-62
2022/08/21 10:35:36;;;;;;;;;;;;;;;;;;;;;
2022/08/21 10:38:39;;;;;;;;;;;;;;;17.28;68.27;99413.00;5065382;28;19953;-62
2022/08/21 10:41:52;;;;;;;;;;;;;;;17.24;68.54;99407.88;5093394;28;19986;-62
2022/08/21 10:44:44;;;;;;;;;;;;;;;17.23;68.83;99411.47;5092991;28;19916;-62
2022/08/21 10:47:31;;;;;;;;;;;;;;;17.27;69.03;99421.84;5091202;28;19936;-61
2022/08/21 10:50:10;;;;;;;;;;;;;;;17.21;69.16;99423.91;5102272;28;19927;-63
2022/08/21 10:56:17;;;;;;;;;;;;;;;17.14;69.72;99438.38;5097993;28;19965;-62
2022/08/21 10:59:01;;;;;;;;;;;;;;;17.12;69.87;99429.69;5098108;28;19917;-61
2022/08/21 11:01:41;;;;;;;;;;;;;;;17.11;70.15;99428.00;5100815;28;20177;-62
2022/08/21 11:07:22;;;;;;;;;;;;;;;17.15;70.55;99432.19;5092486;28;19931;-61
2022/08/21 11:10:14;;;;;;;;;;;;;;;17.14;70.58;99443.66;5113348;28;19916;-61
2022/08/21 11:13:05;;;;;;;;;;;;;;;17.08;71.05;99454.59;5115119;28;19952;-62
2022/08/21 11:16:01;;;;;;;;;;;;;;;16.98;71.86;99463.94;5113157;28;19924;-61
2022/08/21 11:18:58;;;;;;;;;;;;;;;16.89;72.06;99464.44;5113916;28;19941;-62
2022/08/21 11:21:38;;;;;;;;;;;;;;;16.89;72.61;99460.00;5062785;28;19958;-62
2022/08/21 11:24:20;;;;;;;;;;;;;;;16.90;72.83;99468.78;5113009;28;19915;-61
2022/08/21 11:27:09;;;;;;;;;;;;;;;16.84;72.84;99467.34;5112660;28;19923;-61
2022/08/21 11:29:49;;;;;;;;;;;;;;;16.82;73.00;99474.47;5113212;28;20132;-62
2022/08/21 11:35:49;;;;;;;;;;;;;;;16.80;73.08;99482.50;5114113;28;19915;-61
2022/08/21 11:38:41;;;;;;;;;;;;;;;16.79;73.30;99490.47;5111055;28;19966;-62
2022/08/21 11:41:37;;;;;;;;;;;;;;;16.77;73.33;99492.31;5107584;28;19924;-61
2022/08/21 11:44:25;;;;;;;;;;;;;;;16.76;73.32;99491.47;5111950;28;20157;-62
2022/08/21 11:47:16;;;;;;;;;;;;;;;16.79;73.25;99490.47;5110080;28;19927;-61
2022/08/21 11:53:15;;;;;;;;;;;;;;;16.87;73.08;99503.25;5113951;28;19987;-62
2022/08/21 11:56:03;;;;;;;;;;;;;;;16.88;73.22;99504.97;5111906;28;20206;-62
2022/08/21 11:58:54;;;;;;;;;;;;;;;16.86;73.45;99512.13;5113032;28;19923;-61
2022/08/21 12:01:36;;;;;;;;;;;;;;;16.86;73.54;99509.47;5113355;28;19916;-61
2022/08/21 12:04:22;;;;;;;;;;;;;;;16.88;73.70;99510.25;5111445;28;19923;-61
2022/08/21 12:06:56;;;;;;;;;;;;;;;16.89;73.90;99511.94;5112561;28;19988;-61
2022/08/21 12:09:51;;;;;;;;;;;;;;;16.88;73.82;99499.69;5097037;28;19935;-61
2022/08/21 12:15:39;;;;;;;;;;;;;;;16.85;74.55;99515.66;5085760;28;19955;-63
2022/08/21 12:18:38;;;;;;;;;;;;;;;16.80;75.19;99514.16;5089599;28;19947;-62
2022/08/21 12:21:31;;;;;;;;;;;;;;;16.81;75.43;99510.56;5090706;28;19923;-61
2022/08/21 12:24:06;;;;;;;;;;;;;;;16.88;75.61;99515.53;5092074;28;19924;-61
2022/08/21 12:26:55;;;;;;;;;;;;;;;16.92;75.68;99519.69;5091068;28;19946;-62
2022/08/21 12:29:37;;;;;;;;;;;;;;;16.92;75.91;99517.03;5091814;28;19923;-62
2022/08/21 12:35:17;;;;;;;;;;;;;;;16.93;76.43;99514.34;5084627;28;20129;-62
2022/08/21 12:38:08;;;;;;;;;;;;;;;16.92;76.85;99517.91;5092146;28;19923;-61
2022/08/21 12:40:46;;;;;;;;;;;;;;;16.92;77.17;99527.59;5093005;28;19928;-62
2022/08/21 12:43:32;;;;;;;;;;;;;;;16.89;77.25;99520.72;5092339;28;19924;-62
2022/08/21 12:46:16;;;;;;;;;;;;;;;16.87;77.86;99529.63;5090890;28;19931;-62
2022/08/21 12:51:51;;;;;;;;;;;;;;;16.88;78.15;99526.09;5090154;28;19920;-62
2022/08/21 12:54:33;;;;;;;;;;;;;;;16.86;78.42;99522.69;5090114;28;20348;-61
2022/08/21 12:57:11;;;;;;;;;;;;;;;16.86;78.45;99528.78;5090090;28;19986;-62
2022/08/21 12:59:59;;;;;;;;;;;;;;;16.88;78.68;99523.44;5060265;28;19928;-62
2022/08/21 13:02:47;;;;;;;;;;;;;;;16.86;79.02;99522.69;5088049;28;19916;-61
2022/08/21 13:05:41;;;;;;;;;;;;;;;16.90;78.86;99534.75;5090172;28;19935;-62
2022/08/21 13:08:19;;;;;;;;;;;;;;;16.93;79.03;99530.16;5090621;28;20125;-62
2022/08/21 13:11:01;;;;;;;;;;;;;;;16.91;79.57;99531.19;5089502;28;19946;-62
2022/08/21 13:13:59;;;;;;;;;;;;;;;16.81;79.54;99546.66;5091766;28;19916;-62
2022/08/21 13:16:49;;;;;;;;;;;;;;;16.74;79.84;99546.09;5090515;28;19924;-62
2022/08/21 13:19:23;;;;;;;;;;;;;;;16.65;79.83;99551.00;5091399;28;19935;-62
2022/08/21 13:21:59;;;;;;;;;;;;;;;16.53;80.13;99541.97;5086258;28;20333;-62
2022/08/21 13:27:41;;;;;;;;;;;;;;;16.44;81.08;99558.25;5089604;28;19916;-62
2022/08/21 13:30:37;;;;;;;;;;;;;;;16.41;80.98;99561.06;5090166;28;19924;-62
2022/08/21 13:33:17;;;;;;;;;;;;;;;16.24;80.92;99557.50;5091490;28;19971;-62
2022/08/21 13:38:46;;;;;;;;;;;;;;;15.99;81.06;99562.31;5090339;28;19916;-62
2022/08/21 13:44:44;;;;;;;;;;;;;;;15.67;81.53;99565.53;5015998;28;19935;-61
2022/08/21 13:47:17;;;;;;;;;;;;;;;15.50;82.32;99571.66;5041410;28;19984;-62
2022/08/21 13:49:55;;;;;;;;;;;;;;;15.57;82.89;99581.88;5041285;28;19924;-62
2022/08/21 13:52:38;;;;;;;;;;;;;;;15.50;83.11;99576.91;5042516;28;20345;-62
2022/08/21 13:55:26;;;;;;;;;;;;;;;15.35;83.38;99567.13;5043811;28;19952;-62
2022/08/21 13:58:11;;;;;;;;;;;;;;;15.29;83.81;99572.66;5043642;28;19937;-62
2022/08/21 14:00:49;;;;;;;;;;;;;;;15.21;84.02;99569.53;5044122;28;19924;-62
2022/08/21 14:03:39;;;;;;;;;;;;;;;15.21;84.89;99574.78;5043838;28;19917;-61
2022/08/21 14:06:20;;;;;;;;;;;;;;;15.34;85.32;99568.03;5043575;28;19991;-61
2022/08/21 14:09:09;;;;;;;;;;;;;;;15.37;85.43;99581.03;5051216;28;19916;-62
2022/08/21 14:11:50;;;;;;;;;;;;;;;15.26;85.35;99572.81;5063742;28;19979;-62
2022/08/21 14:14:47;;;;;;;;;;;;;;;15.22;85.66;99587.84;5063320;28;19924;-62
2022/08/21 14:17:38;;;;;;;;;;;;;;;15.17;85.87;99583.75;5063457;28;19923;-62
2022/08/21 14:20:32;;;;;;;;;;;;;;;15.16;85.97;99587.31;5066102;28;19956;-62
2022/08/21 14:23:11;;;;;;;;;;;;;;;15.12;85.99;99597.09;5059519;28;19927;-62
2022/08/21 14:25:51;;;;;;;;;;;;;;;15.06;86.03;99597.41;5066199;28;19950;-62
2022/08/21 14:28:36;;;;;;;;;;;;;;;14.90;86.10;99591.94;5067865;28;19916;-62
2022/08/21 14:31:17;;;;;;;;;;;;;;;14.72;86.15;99598.03;5067320;28;19967;-62
2022/08/21 14:33:58;;;;;;;;;;;;;;;14.63;86.29;99589.66;5067452;28;19944;-61
2022/08/21 14:36:30;;;;;;;;;;;;;;;14.51;86.44;99584.03;5067448;28;19955;-61
2022/08/21 14:39:09;;;;;;;;;;;;;;;14.30;86.90;99585.78;5067093;28;19979;-62
2022/08/21 14:44:52;;;;;;;;;;;;;;;14.19;87.35;99602.88;5067329;28;19943;-61
2022/08/21 14:47:42;;;;;;;;;;;;;;;14.14;87.44;99596.97;5067522;28;20211;-61
2022/08/21 14:50:22;;;;;;;;;;;;;;;14.17;87.69;99599.44;5061193;28;19924;-61
2022/08/21 14:56:10;;;;;;;;;;;;;;;14.20;87.78;99596.72;5066612;28;19924;-62
2022/08/21 14:59:04;;;;;;;;;;;;;;;14.23;87.67;99587.84;5066856;28;20011;-61
2022/08/21 15:01:42;;;;;;;;;;;;;;;14.18;87.67;99588.03;5066407;28;20193;-62
2022/08/21 15:04:15;;;;;;;;;;;;;;;14.16;88.06;99578.50;5066821;28;19916;-62
2022/08/21 15:06:50;;;;;;;;;;;;;;;14.15;88.23;99577.66;5066736;28;19943;-61
2022/08/21 15:09:21;;;;;;;;;;;;;;;14.12;88.31;99567.25;5066130;28;19924;-62
2022/08/21 15:12:03;;;;;;;;;;;;;;;14.11;88.70;99576.06;5066602;28;19917;-62
2022/08/21 15:14:50;;;;;;;;;;;;;;;14.18;88.70;99579.31;5066879;28;19925;-61
2022/08/21 15:17:27;;;;;;;;;;;;;;;14.16;88.74;99574.09;5049296;28;19916;-62
2022/08/21 15:20:03;;;;;;;;;;;;;;;14.15;88.80;99567.16;5066740;28;20030;-62
2022/08/21 15:25:27;;;;;;;;;;;;;;;14.15;88.56;99553.13;5066806;28;20090;-62
2022/08/21 15:31:06;;;;;;;;;;;;;;;14.21;88.42;99551.13;5065473;28;19980;-61
2022/08/21 15:33:53;;;;;;;;;;;;;;;14.19;88.71;99558.19;5066497;28;20410;-62
2022/08/21 15:36:25;;;;;;;;;;;;;;;14.17;89.08;99565.28;5066171;28;19924;-63
2022/08/21 15:39:11;;;;;;;;;;;;;;;14.10;88.84;99584.84;5058920;28;19927;-62
2022/08/21 15:41:54;;;;;;;;;;;;;;;14.04;89.26;99579.88;5065969;28;19920;-62
2022/08/21 15:44:41;;;;;;;;;;;;;;;14.02;89.45;99589.59;5066018;28;19925;-61
2022/08/21 15:47:30;;;;;;;;;;;;;;;14.05;89.86;99592.06;5065866;28;19935;-62
2022/08/21 15:50:25;;;;;;;;;;;;;;;14.03;89.98;99599.19;5059399;28;19933;-62
2022/08/21 15:53:08;;;;;;;;;;;;;;;14.06;90.19;99591.19;5065604;28;19921;-62
2022/08/21 15:55:57;;;;;;;;;;;;;;;14.05;90.87;99594.69;5066281;28;20054;-62
2022/08/21 15:58:33;;;;;;;;;;;;;;;14.07;91.21;99595.50;5065292;28;19993;-62
2022/08/21 16:01:37;;;;;;;;;;;;;;;14.07;91.29;99594.66;5065766;28;19935;-62
2022/08/21 16:04:27;;;;;;;;;;;;;;;14.07;91.33;99597.28;5059616;28;19917;-62
2022/08/21 16:07:19;;;;;;;;;;;;;;;14.05;91.43;99601.72;5065448;28;19959;-62
2022/08/21 16:09:55;;;;;;;;;;;;;;;14.06;91.80;99593.81;5065490;28;19916;-62
2022/08/21 16:12:44;;;;;;;;;;;;;;;14.12;91.94;99603.19;5065212;28;19951;-63
2022/08/21 16:15:32;;;;;;;;;;;;;;;14.14;91.98;99607.47;5060681;28;19924;-62
2022/08/21 16:18:23;;;;;;;;;;;;;;;14.14;92.40;99612.72;5065512;28;19927;-62
2022/08/21 16:21:09;;;;;;;;;;;;;;;14.16;92.74;99616.16;5065303;28;19923;-62
2022/08/21 16:26:38;;;;;;;;;;;;;;;14.21;94.23;99597.56;5065316;28;19989;-63
2022/08/21 16:29:13;;;;;;;;;;;;;;;14.24;94.52;99585.13;5062243;28;19924;-63
2022/08/21 16:31:50;;;;;;;;;;;;;;;14.30;94.90;99585.78;5065384;28;19920;-63
2022/08/21 16:34:40;;;;;;;;;;;;;;;14.38;94.93;99588.97;5065102;28;19950;-62
2022/08/21 16:37:23;;;;;;;;;;;;;;;14.38;94.37;99581.09;5064952;28;19916;-63
2022/08/21 16:40:14;;;;;;;;;;;;;;;14.37;94.09;99588.09;5065195;28;20184;-63
2022/08/21 16:45:58;;;;;;;;;;;;;;;14.47;93.91;99593.81;5063511;28;20201;-63
2022/08/21 16:48:30;;;;;;;;;;;;;;;14.54;93.71;99595.28;5064968;28;19928;-63
2022/08/21 16:51:15;;;;;;;;;;;;;;;14.57;93.74;99604.81;5065026;28;19924;-63
2022/08/21 16:53:54;;;;;;;;;;;;;;;14.59;94.09;99603.00;5064730;28;19917;-63
2022/08/21 16:59:31;;;;;;;;;;;;;;;14.58;94.24;99602.13;5063471;28;19927;-62
2022/08/21 17:02:09;;;;;;;;;;;;;;;14.59;94.19;99609.09;5063419;28;19943;-62
2022/08/21 17:04:47;;;;;;;;;;;;;;;14.56;94.03;99603.97;5064715;28;19935;-61
2022/08/21 17:10:29;;;;;;;;;;;;;;;14.57;94.20;99599.56;5064150;28;19924;-64
2022/08/21 17:13:12;;;;;;;;;;;;;;;14.55;94.28;99599.66;5064815;28;20230;-62
2022/08/21 17:15:47;;;;;;;;;;;;;;;14.55;94.54;99602.28;5064282;28;19916;-63
2022/08/21 17:18:21;;;;;;;;;;;;;;;14.56;94.60;99603.13;5062395;28;20087;-62
2022/08/21 17:20:57;;;;;;;;;;;;;;;14.58;94.39;99607.41;5064604;28;19916;-63